METAR AND TAF INFORMATION
METAR FOR ETMN
ADDS - METARS form results

(0620 UTC 09 April 2020)
Data provider http://aviationweather.gov/metar/data/
 
METAR text: ETMN 090537Z 28004KT 9999 BKN049 06/05 Q1024 BLU BLU
Conditions at: ETMN (NORDHOLZ (GER-NA, DE) observed 0537 UTC 09 April 2020
Temperature: 6.0°C (43°F)
Dewpoint: 5.0°C (41°F) [RH = 93%]
Pressure (altimeter): 30.24 inches Hg (1024.0 mb)
Winds: from the W (280 degrees) at 5 MPH (4 knots; 2.1 m/s)
Visibility: 6 or more miles (10+ km)
Ceiling: 4900 feet AGL
Clouds: broken clouds at 4900 feet AGL
Weather: no significant weather observed at this time

METAR text: ETMN 090527Z 27004KT 6000 BKN049 05/03 Q1024 WHT WHT BECMG BLU
Conditions at: ETMN (NORDHOLZ (GER-NA, DE) observed 0527 UTC 09 April 2020
Temperature: 5.0°C (41°F)
Dewpoint: 3.0°C (37°F) [RH = 87%]
Pressure (altimeter): 30.24 inches Hg (1024.0 mb)
Winds: from the W (270 degrees) at 5 MPH (4 knots; 2.1 m/s)
Visibility: 4 miles ( 6 km)
Ceiling: 4900 feet AGL
Clouds: broken clouds at 4900 feet AGL
Weather: no significant weather observed at this time

Forecast for: AMD
Text: TAF AMD ETMN 090529Z 0905/0914 30007KT 5000 BR BKN040
Forecast period: 0500 to 1400 UTC 09 April 2020
Forecast type: FROM: standard forecast or significant change
Winds: from the WNW (300 degrees) at 8 MPH (7 knots; 3.6 m/s)
Visibility: 3 miles (5 km)
Ceiling: 4000 feet AGL
Clouds: broken clouds at 4000 feet AGL
Weather: BR  (mist)
Text: BECMG 0905/0906 33010KT 9999 NSW BKN040
Forecast period: 0500 to 1400 UTC 09 April 2020
Forecast type: BECOMING: Conditions expected to become as follows by 0600 UTC 09 April 2020
Winds: from the NNW (330 degrees) at 12 MPH (10 knots; 5.1 m/s)
Visibility: 6 or more miles 10+ km)
Ceiling: 4000 feet AGL
Clouds: broken clouds at 4000 feet AGL
Weather: NSW  (no significant weather)
Text: PROB30 0909/0911 33010KT 5000 -DZ BKN004 BKN040
Forecast period: 0900 to 1100 UTC 09 April 2020
Forecast type: PROBABLE: 30 percent likelihood of the following during this time
Winds: from the NNW (330 degrees) at 12 MPH (10 knots; 5.1 m/s)
Visibility: 3 miles (5 km)
Ceiling: 400 feet AGL
Clouds: broken clouds at 400 feet AGL
broken clouds at 4000 feet AGL
Weather: -DZ  (light drizzle)

 AIRPORT MAP

 RUNWAY INFORMATION
Runway 08 Runway length 8002 ft Runway width 148 ft
Runway elevation 69 ft Runway displaced threshold 0 ft Runway heading 78
Runway 26 Runway length 8002 ft Runway width 148 ft
Runway elevation 39 ft Runway displaced threshold 0 ft Runway heading 258

 AIRPORT FREQUENCIES
Type A/D Name RADAR Frequency 35.612 MHZ
Type A/D Name RADAR Frequency 123.3 MHZ
Type ACC Name BREMEN CON Frequency 124.075 MHZ
Type AFIS Name BREMEN INF Frequency 125.1 MHZ
Type OPS Name WING OPS Frequency 28.252 MHZ
Type TWR Name TWR Frequency 122.1 MHZ

 AIRPORT NEAR NAVIGATION AIDS
Type TACAN Name Nordholz Frequency 117100 KHZ
Type NDB Name Nordholz Frequency 372 KHZ